Sacramento, California
Traffic Map
Current Weather Conditions
Sacramento, California
Clear
Clear
19°
Feels Like: 19°
Wind Chill: 19° Ceiling: Unl
Heat Index: 19° Visibility: 10mi
Dew Point: 14° Wind: 8mph
Humidity: 73% Direction: 190° (S)
Pressure: 29.97in Gusts: 0mph
Raw Report DataKSAC 071453Z 19007KT 10SM CLR 19/14 A2997 RMK AO2 SLP150 T01890139 53010
Traffic Incident Summary
Active as of:
Severity:
Category:
InformationThere was an issue retrieving the traffic information for this location. Please try a different location or try again shortly.
Advertisements
Track Severe Weather on mobile